.
WxDataArchive / Data Records for 2014-01-10
2014-01-09 January 2014 2014-01-11

Data Records for Friday, 10 January 2014

Time	Temp	Chill	HIndex	Humid	Dewpt	 Wind 	HiWind	WindDir	Rain 	Barom 
-----	----	-----	------	-----	-----	------	------	-------	-----	----- 
00:00	24.4	24.4	24.4	92	22.4	0	1	90	0.00	30.273 
00:05	24.5	24.5	24.5	92	22.5	0	1	90	0.00	30.273 
00:10	24.7	24.7	24.7	92	22.7	0	0	---	0.00	30.273 
00:15	24.8	24.8	24.8	92	22.8	0	0	---	0.00	30.265 
00:20	25.0	25.0	25.0	92	23.0	0	0	---	0.00	30.265 
00:25	25.1	25.1	25.1	92	23.1	0	0	---	0.00	30.265 
00:30	25.3	25.3	25.3	92	23.3	0	0	---	0.00	30.260 
00:35	25.4	25.4	25.4	92	23.4	0	0	---	0.00	30.260 
00:40	25.6	25.6	25.6	92	23.6	0	0	---	0.00	30.260 
00:45	25.7	25.7	25.7	92	23.7	0	0	---	0.00	30.252 
00:50	25.7	25.7	25.7	92	23.7	0	0	---	0.00	30.252 
00:55	25.8	25.8	25.8	92	23.8	0	0	---	0.00	30.252 
01:00	26.0	26.0	26.0	92	24.0	0	0	---	0.00	30.249 
01:05	26.0	26.0	26.0	92	24.0	0	0	---	0.00	30.249 
01:10	26.1	26.1	26.1	92	24.1	0	0	---	0.00	30.249 
01:15	26.3	26.3	26.3	92	24.3	0	0	---	0.00	30.239 
01:20	26.4	26.4	26.4	92	24.4	0	0	---	0.00	30.239 
01:25	26.6	26.6	26.6	93	24.9	0	0	---	0.00	30.239 
01:30	26.7	26.7	26.7	93	25.0	0	0	---	0.00	30.236 
01:35	26.9	26.9	26.9	93	25.2	0	0	---	0.00	30.236 
01:40	27.0	27.0	27.0	93	25.3	0	0	---	0.00	30.236 
01:45	27.0	27.0	27.0	93	25.3	0	0	---	0.00	30.234 
01:50	27.2	27.2	27.2	93	25.4	0	0	---	0.00	30.234 
01:55	27.3	27.3	27.3	93	25.5	0	0	---	0.00	30.234 
02:00	27.3	27.3	27.3	93	25.5	0	0	---	0.00	30.227 
02:05	27.5	27.5	27.5	93	25.7	0	0	---	0.00	30.227 
02:10	27.5	27.5	27.5	93	25.7	0	0	---	0.00	30.227 
02:15	27.8	27.8	27.8	93	26.0	0	2	90	0.00	30.220 
02:20	28.2	28.2	28.2	93	26.4	0	0	---	0.00	30.220 
02:25	28.5	28.5	28.5	94	27.0	0	0	---	0.00	30.220 
02:30	28.8	28.8	28.8	93	27.0	0	0	---	0.00	30.220 
02:35	29.0	29.0	29.0	93	27.2	0	0	---	0.00	30.220 
02:40	29.1	29.1	29.1	93	27.3	0	1	90	0.00	30.220 
02:45	29.3	29.3	29.3	93	27.5	0	1	90	0.00	30.220 
02:50	29.4	29.4	29.4	93	27.6	0	0	---	0.00	30.220 
02:55	29.4	29.4	29.4	93	27.6	0	0	---	0.00	30.220 
03:00	29.5	29.5	29.5	94	28.0	0	1	90	0.00	30.218 
03:05	29.8	29.8	29.8	94	28.3	0	1	90	0.00	30.218 
03:10	30.0	30.0	30.0	94	28.5	0	0	---	0.00	30.218 
03:15	30.1	30.1	30.1	94	28.6	0	0	---	0.00	30.215 
03:20	30.1	30.1	30.1	94	28.6	0	0	---	0.00	30.215 
03:25	30.3	30.3	30.3	94	28.8	0	1	90	0.00	30.215 
03:30	30.4	30.4	30.4	94	28.9	0	0	---	0.00	30.213 
03:35	30.6	30.6	30.6	94	29.1	0	0	---	0.00	30.213 
03:40	30.6	30.6	30.6	94	29.1	0	2	90	0.00	30.213 
03:45	30.7	30.7	30.7	94	29.2	0	1	90	0.00	30.201 
03:50	30.9	30.9	30.9	94	29.4	0	0	---	0.00	30.201 
03:55	30.9	30.9	30.9	94	29.4	0	1	90	0.00	30.201 
04:00	31.0	31.0	31.0	94	29.5	0	1	90	0.00	30.200 
04:05	31.2	31.2	31.2	94	29.7	0	1	90	0.00	30.200 
04:10	31.2	31.2	31.2	94	29.7	0	1	90	0.00	30.200 
04:15	31.3	31.3	31.3	94	29.8	0	1	90	0.00	30.197 
04:20	31.5	31.5	31.5	94	30.0	0	1	90	0.00	30.197 
04:25	31.5	31.5	31.5	94	30.0	0	1	90	0.00	30.197 
04:30	31.6	31.6	31.6	94	30.1	0	0	---	0.00	30.192 
04:35	31.6	31.6	31.6	94	30.1	0	1	90	0.00	30.192 
04:40	31.8	31.8	31.8	94	30.3	0	0	---	0.00	30.192 
04:45	31.8	31.8	31.8	94	30.3	0	0	---	0.00	30.188 
04:50	31.9	31.9	31.9	95	30.6	0	0	---	0.00	30.188 
04:55	31.9	31.9	31.9	95	30.6	0	1	90	0.00	30.188 
05:00	32.1	32.1	32.1	95	30.8	0	1	90	0.00	30.184 
05:05	32.1	32.1	32.1	95	30.8	0	1	90	0.00	30.184 
05:10	32.2	32.2	32.2	95	30.9	0	0	---	0.00	30.184 
05:15	32.2	32.2	32.2	95	30.9	0	1	90	0.00	30.180 
05:20	32.4	32.4	32.4	95	31.1	0	1	90	0.00	30.180 
05:25	32.4	32.4	32.4	95	31.1	0	0	---	0.00	30.180 
05:30	32.4	32.4	32.4	95	31.1	0	1	90	0.00	30.176 
05:35	32.4	32.4	32.4	95	31.1	0	1	90	0.00	30.176 
05:40	32.4	32.4	32.4	95	31.1	0	1	90	0.00	30.176 
05:45	32.4	32.4	32.4	95	31.1	0	1	90	0.00	30.168 
05:50	32.4	32.4	32.4	95	31.1	0	0	---	0.00	30.168 
05:55	32.4	32.4	32.4	95	31.1	0	1	90	0.00	30.168 
06:00	32.5	32.5	32.5	95	31.2	0	1	90	0.00	30.167 
06:05	32.5	32.5	32.5	95	31.2	0	1	90	0.00	30.167 
06:10	32.5	32.5	32.5	95	31.2	0	1	90	0.00	30.167 
06:15	32.5	32.5	32.5	95	31.2	0	1	90	0.00	30.170 
06:20	32.5	32.5	32.5	95	31.2	0	0	---	0.00	30.170 
06:25	32.5	32.5	32.5	95	31.2	0	1	90	0.00	30.170 
06:30	32.5	32.5	32.5	95	31.2	0	2	90	0.00	30.173 
06:35	32.7	32.7	32.7	95	31.4	0	1	90	0.00	30.173 
06:40	32.7	32.7	32.7	95	31.4	0	1	90	0.00	30.173 
06:45	32.7	32.7	32.7	95	31.4	0	0	---	0.00	30.175 
06:50	32.7	32.7	32.7	95	31.4	0	1	90	0.00	30.175 
06:55	32.7	32.7	32.7	95	31.4	0	1	90	0.00	30.175 
07:00	32.8	32.8	32.8	95	31.5	0	1	90	0.00	30.169 
07:05	32.7	32.7	32.7	95	31.4	0	0	---	0.00	30.169 
07:10	32.7	32.7	32.7	95	31.4	0	0	---	0.00	30.169 
07:15	32.8	32.8	32.8	95	31.5	0	1	90	0.00	30.172 
07:20	32.8	32.8	32.8	95	31.5	0	0	---	0.00	30.172 
07:25	32.8	32.8	32.8	95	31.5	0	1	90	0.00	30.172 
07:30	32.8	32.8	32.8	95	31.5	0	1	90	0.00	30.174 
07:35	32.8	32.8	32.8	95	31.5	0	2	90	0.00	30.174 
07:40	32.9	32.9	32.9	95	31.6	0	0	---	0.00	30.174 
07:45	32.9	32.9	32.9	95	31.6	0	0	---	0.00	30.174 
07:50	32.9	32.9	32.9	95	31.6	0	1	90	0.00	30.174 
07:55	32.9	32.9	32.9	95	31.6	0	1	90	0.00	30.174 
08:00	33.1	33.1	33.1	95	31.8	0	1	90	0.00	30.164 
08:05	33.1	33.1	33.1	95	31.8	0	0	---	0.00	30.164 
08:10	33.1	33.1	33.1	95	31.8	0	0	---	0.00	30.164 
08:15	33.1	33.1	33.1	95	31.8	0	1	90	0.00	30.163 
08:20	33.1	33.1	33.1	95	31.8	0	1	90	0.00	30.163 
08:25	33.1	33.1	33.1	95	31.8	0	2	90	0.00	30.163 
08:30	33.1	33.1	33.1	95	31.8	0	1	90	0.00	30.162 
08:35	33.2	33.2	33.2	95	31.9	0	1	90	0.00	30.162 
08:40	33.2	33.2	33.2	95	31.9	0	1	90	0.00	30.162 
08:45	33.2	33.2	33.2	95	31.9	0	2	90	0.00	30.175 
08:50	33.2	33.2	33.2	96	32.2	0	1	90	0.00	30.175 
08:55	33.4	33.4	33.4	95	32.1	0	2	90	0.00	30.175 
09:00	33.4	33.4	33.4	95	32.1	0	2	90	0.00	30.175 
09:05	33.5	33.5	33.5	96	32.5	0	2	90	0.00	30.175 
09:10	33.5	33.5	33.5	96	32.5	0	2	90	0.00	30.175 
09:15	33.5	33.5	33.5	96	32.5	0	2	90	0.00	30.173 
09:20	33.7	33.7	33.7	96	32.7	0	1	90	0.00	30.173 
09:25	33.7	33.7	33.7	96	32.7	0	3	90	0.00	30.173 
09:30	33.7	33.7	33.7	96	32.7	0	1	90	0.00	30.172 
09:35	33.8	33.8	33.8	96	32.8	0	1	90	0.00	30.172 
09:40	33.8	33.8	33.8	96	32.8	0	1	90	0.00	30.172 
09:45	33.8	33.8	33.8	96	32.8	0	2	90	0.00	30.171 
09:50	33.8	33.8	33.8	96	32.8	0	2	90	0.00	30.171 
09:55	34.0	34.0	34.0	96	33.0	0	2	90	0.00	30.171 
10:00	34.0	34.0	34.0	96	33.0	1	2	90	0.00	30.168 
10:05	34.1	34.1	34.1	96	33.1	1	3	90	0.00	30.168 
10:10	34.1	34.1	34.1	96	33.1	1	3	90	0.00	30.168 
10:15	34.3	34.3	34.3	96	33.3	1	3	90	0.00	30.166 
10:20	34.4	34.4	34.4	96	33.4	1	3	90	0.00	30.166 
10:25	34.4	34.4	34.4	96	33.4	1	3	90	0.00	30.166 
10:30	34.6	34.6	34.6	96	33.6	1	2	90	0.00	30.162 
10:35	34.6	34.6	34.6	96	33.6	1	2	90	0.00	30.162 
10:40	34.7	34.7	34.7	96	33.7	1	3	90	0.00	30.162 
10:45	34.9	34.9	34.9	96	33.9	1	2	90	0.00	30.154 
10:50	35.0	35.0	35.0	96	34.0	1	4	90	0.00	30.154 
10:55	35.2	35.2	35.2	96	34.2	1	3	90	0.00	30.154 
11:00	35.3	35.3	35.3	96	34.3	0	2	90	0.00	30.150 
11:05	35.3	35.3	35.3	96	34.3	1	3	90	0.00	30.150 
11:10	35.3	35.3	35.3	96	34.3	1	3	90	0.01	30.150 
11:15	35.5	35.5	35.5	96	34.5	1	4	90	0.00	30.136 
11:20	35.5	35.5	35.5	96	34.5	1	4	90	0.01	30.136 
11:25	35.6	35.6	35.6	96	34.6	1	3	90	0.01	30.136 
11:30	35.6	35.6	35.6	96	34.6	1	4	90	0.01	30.121 
11:35	35.8	35.8	35.8	96	34.8	1	3	90	0.01	30.121 
11:40	35.8	35.8	35.8	96	34.8	1	4	90	0.01	30.121 
11:45	35.8	35.8	35.8	96	34.8	1	4	112	0.01	30.119 
11:50	35.6	35.6	35.6	96	34.6	1	3	112	0.01	30.119 
11:55	35.8	35.8	35.8	96	34.8	1	3	112	0.01	30.119 
12:00	35.8	35.8	35.8	96	34.8	0	2	112	0.01	30.105 
12:05	35.8	35.8	35.8	96	34.8	1	4	112	0.01	30.105 
12:10	35.8	35.8	35.8	96	34.8	1	3	112	0.00	30.105 
12:15	35.9	35.9	35.9	96	34.9	0	2	112	0.01	30.088 
12:20	35.9	35.9	35.9	96	34.9	0	2	112	0.01	30.088 
12:25	35.9	35.9	35.9	96	34.9	1	2	112	0.01	30.088 
12:30	35.9	35.9	35.9	95	34.6	0	2	112	0.00	30.085 
12:35	35.9	35.9	35.9	96	34.9	0	3	112	0.01	30.085 
12:40	35.9	35.9	35.9	96	34.9	0	2	112	0.01	30.085 
12:45	36.0	36.0	36.0	96	35.0	0	2	112	0.01	30.059 
12:50	36.0	36.0	36.0	95	34.7	0	1	112	0.00	30.059 
12:55	36.2	36.2	36.2	96	35.2	0	1	112	0.01	30.059 
13:00	36.2	36.2	36.2	95	34.9	0	2	112	0.01	30.056 
13:05	36.2	36.2	36.2	95	34.9	0	2	112	0.00	30.056 
13:10	36.3	36.3	36.3	95	35.0	0	2	112	0.01	30.056 
13:15	36.5	36.5	36.5	96	35.5	1	3	112	0.01	30.023 
13:20	36.8	36.8	36.8	95	35.5	1	4	112	0.01	30.023 
13:25	37.0	37.0	37.0	95	35.7	0	2	112	0.01	30.023 
13:30	36.9	36.9	36.9	95	35.6	1	4	112	0.01	30.010 
13:35	36.9	36.9	36.9	95	35.6	1	2	112	0.01	30.010 
13:40	37.0	37.0	37.0	95	35.7	1	4	112	0.01	30.010 
13:45	37.0	37.0	37.0	95	35.7	0	2	112	0.01	30.004 
13:50	37.0	37.0	37.0	95	35.7	1	3	112	0.01	30.004 
13:55	37.0	37.0	37.0	95	35.7	0	1	112	0.01	30.004 
14:00	36.9	36.9	36.9	95	35.6	1	3	112	0.01	30.002 
14:05	36.8	36.8	36.8	95	35.5	1	4	135	0.00	30.002 
14:10	36.9	36.9	36.9	95	35.6	1	2	135	0.01	30.002 
14:15	36.9	36.9	36.9	95	35.6	1	3	112	0.01	29.989 
14:20	36.9	36.9	36.9	95	35.6	1	3	112	0.01	29.989 
14:25	37.0	37.0	37.0	95	35.7	1	5	112	0.00	29.989 
14:30	37.0	37.0	37.0	95	35.7	1	3	135	0.01	29.973 
14:35	37.0	37.0	37.0	94	35.4	0	2	135	0.01	29.973 
14:40	36.9	36.9	36.9	94	35.3	1	4	135	0.00	29.973 
14:45	36.9	36.9	36.9	94	35.3	0	2	135	0.01	29.973 
14:50	36.8	36.8	36.8	94	35.2	2	4	135	0.01	29.973 
14:55	36.9	36.9	36.9	94	35.3	1	4	135	0.00	29.973 
15:00	37.0	37.0	37.0	94	35.4	1	3	112	0.01	29.967 
15:05	37.2	37.2	37.2	94	35.6	1	3	135	0.01	29.967 
15:10	37.2	37.2	37.2	94	35.6	1	2	135	0.00	29.967 
15:15	37.2	37.2	37.2	94	35.6	1	3	112	0.01	29.940 
15:20	37.2	37.2	37.2	94	35.6	1	4	112	0.01	29.940 
15:25	37.3	37.3	37.3	94	35.7	1	4	112	0.00	29.940 
15:30	37.5	37.5	37.5	94	35.9	1	5	112	0.01	29.926 
15:35	37.5	37.5	37.5	94	35.9	1	3	112	0.01	29.926 
15:40	37.6	37.6	37.6	94	36.0	1	3	112	0.01	29.926 
15:45	37.6	37.6	37.6	94	36.0	1	4	90	0.00	29.928 
15:50	37.6	37.6	37.6	94	36.0	1	4	112	0.01	29.928 
15:55	37.5	37.5	37.5	94	35.9	1	4	112	0.01	29.928 
16:00	37.5	37.5	37.5	94	35.9	1	4	112	0.00	29.928 
16:05	37.5	37.5	37.5	94	35.9	1	4	112	0.01	29.928 
16:10	37.5	37.5	37.5	94	35.9	1	3	112	0.00	29.928 
16:15	37.6	37.6	37.6	94	36.0	1	3	112	0.01	29.921 
16:20	37.5	37.5	37.5	94	35.9	0	3	112	0.00	29.921 
16:25	37.5	37.5	37.5	94	35.9	1	4	112	0.01	29.921 
16:30	37.5	37.5	37.5	94	35.9	1	4	90	0.00	29.916 
16:35	37.5	37.5	37.5	94	35.9	1	3	90	0.01	29.916 
16:40	37.3	37.3	37.3	94	35.7	1	3	90	0.00	29.916 
16:45	37.3	37.3	37.3	94	35.7	1	3	90	0.01	29.908 
16:50	37.2	37.2	37.2	94	35.6	1	5	90	0.00	29.908 
16:55	37.3	37.3	37.3	94	35.7	2	4	112	0.01	29.908 
17:00	37.5	37.5	37.5	94	35.9	1	5	112	0.00	29.906 
17:05	37.6	37.6	37.6	94	36.0	1	4	90	0.01	29.906 
17:10	37.6	37.6	37.6	94	36.0	1	3	112	0.00	29.906 
17:15	37.6	37.6	37.6	94	36.0	1	3	112	0.00	29.900 
17:20	37.8	37.8	37.8	94	36.2	1	3	112	0.01	29.900 
17:25	37.8	37.8	37.8	95	36.5	1	2	112	0.00	29.900 
17:30	37.8	37.8	37.8	95	36.5	0	2	112	0.01	29.875 
17:35	37.6	37.6	37.6	94	36.0	0	2	112	0.00	29.875 
17:40	37.5	37.5	37.5	94	35.9	0	2	112	0.00	29.875 
17:45	37.3	37.3	37.3	94	35.7	0	3	112	0.01	29.874 
17:50	37.3	37.3	37.3	95	36.0	0	2	112	0.00	29.874 
17:55	37.3	37.3	37.3	95	36.0	0	2	112	0.00	29.874 
18:00	37.3	37.3	37.3	95	36.0	0	2	112	0.01	29.873 
18:05	37.5	37.5	37.5	95	36.2	0	2	112	0.00	29.873 
18:10	37.6	37.6	37.6	95	36.3	0	2	112	0.01	29.873 
18:15	37.6	37.6	37.6	95	36.3	1	4	112	0.00	29.865 
18:20	37.8	37.8	37.8	95	36.5	1	3	112	0.01	29.865 
18:25	37.8	37.8	37.8	95	36.5	1	4	112	0.01	29.865 
18:30	37.6	37.6	37.6	95	36.3	1	3	112	0.01	29.859 
18:35	37.6	37.6	37.6	95	36.3	1	3	112	0.01	29.859 
18:40	37.6	37.6	37.6	95	36.3	1	3	112	0.01	29.859 
18:45	37.6	37.6	37.6	95	36.3	1	3	112	0.01	29.858 
18:50	37.6	37.6	37.6	95	36.3	1	4	112	0.01	29.858 
18:55	37.6	37.6	37.6	95	36.3	1	2	112	0.01	29.858 
19:00	37.6	37.6	37.6	95	36.3	1	2	112	0.01	29.843 
19:05	37.6	37.6	37.6	95	36.3	1	3	112	0.01	29.843 
19:10	37.6	37.6	37.6	95	36.3	0	3	112	0.02	29.843 
19:15	37.6	37.6	37.6	95	36.3	1	2	112	0.01	29.842 
19:20	37.6	37.6	37.6	95	36.3	0	2	112	0.00	29.842 
19:25	37.5	37.5	37.5	95	36.2	0	2	112	0.01	29.842 
19:30	37.5	37.5	37.5	95	36.2	0	2	112	0.01	29.832 
19:35	37.3	37.3	37.3	95	36.0	0	3	112	0.01	29.832 
19:40	37.3	37.3	37.3	95	36.0	0	2	112	0.01	29.832 
19:45	37.3	37.3	37.3	96	36.3	0	2	112	0.00	29.825 
19:50	37.3	37.3	37.3	96	36.3	0	2	112	0.01	29.825 
19:55	37.5	37.5	37.5	96	36.5	0	1	112	0.01	29.825 
20:00	37.5	37.5	37.5	96	36.5	0	1	112	0.01	29.827 
20:05	37.3	37.3	37.3	96	36.3	0	2	112	0.02	29.827 
20:10	37.3	37.3	37.3	96	36.3	0	2	112	0.02	29.827 
20:15	37.3	37.3	37.3	96	36.3	1	3	112	0.01	29.828 
20:20	37.3	37.3	37.3	96	36.3	0	3	112	0.02	29.828 
20:25	37.5	37.5	37.5	96	36.5	0	3	112	0.02	29.828 
20:30	37.6	37.6	37.6	96	36.6	1	3	112	0.01	29.812 
20:35	37.8	37.8	37.8	96	36.8	1	4	112	0.01	29.812 
20:40	37.9	37.9	37.9	96	36.9	1	4	112	0.02	29.812 
20:45	38.0	38.0	38.0	96	37.0	0	2	112	0.01	29.802 
20:50	37.9	37.9	37.9	96	36.9	0	2	112	0.02	29.802 
20:55	37.9	37.9	37.9	96	36.9	0	2	112	0.01	29.802 
21:00	37.9	37.9	37.9	96	36.9	0	2	112	0.01	29.789 
21:05	37.9	37.9	37.9	96	36.9	0	2	112	0.02	29.789 
21:10	38.0	38.0	38.0	96	37.0	1	2	112	0.01	29.789 
21:15	38.0	38.0	38.0	96	37.0	0	2	112	0.01	29.779 
21:20	38.0	38.0	38.0	96	37.0	1	3	112	0.01	29.779 
21:25	37.9	37.9	37.9	96	36.9	0	2	112	0.02	29.779 
21:30	37.9	37.9	37.9	96	36.9	1	3	112	0.01	29.764 
21:35	37.9	37.9	37.9	96	36.9	1	3	112	0.01	29.764 
21:40	38.0	38.0	38.0	96	37.0	1	3	112	0.01	29.764 
21:45	38.0	38.0	38.0	96	37.0	1	3	112	0.01	29.748 
21:50	38.0	38.0	38.0	96	37.0	1	2	112	0.01	29.748 
21:55	38.0	38.0	38.0	96	37.0	1	3	112	0.01	29.748 
22:00	38.0	38.0	38.0	96	37.0	0	3	112	0.01	29.733 
22:05	38.0	38.0	38.0	96	37.0	0	3	112	0.00	29.733 
22:10	38.0	38.0	38.0	96	37.0	0	2	112	0.01	29.733 
22:15	38.0	38.0	38.0	96	37.0	0	2	112	0.00	29.728 
22:20	38.0	38.0	38.0	96	37.0	0	2	112	0.01	29.728 
22:25	38.0	38.0	38.0	96	37.0	0	2	112	0.01	29.728 
22:30	38.0	38.0	38.0	96	37.0	1	3	112	0.00	29.700 
22:35	38.2	38.2	38.2	96	37.2	1	2	112	0.00	29.700 
22:40	38.2	38.2	38.2	96	37.2	0	2	112	0.01	29.700 
22:45	38.2	38.2	38.2	96	37.2	0	3	112	0.00	29.688 
22:50	38.3	38.3	38.3	96	37.3	1	3	112	0.01	29.688 
22:55	38.6	38.6	38.6	96	37.6	1	5	90	0.00	29.688 
23:00	38.8	38.8	38.8	96	37.8	1	3	90	0.01	29.682 
23:05	38.8	38.8	38.8	96	37.8	1	4	112	0.00	29.682 
23:10	38.9	38.9	38.9	96	37.9	1	4	112	0.01	29.682 
23:15	39.1	39.1	39.1	96	38.1	1	4	112	0.00	29.668 
23:20	39.1	39.1	39.1	96	38.1	1	4	112	0.01	29.668 
23:25	39.2	39.2	39.2	96	38.2	2	4	112	0.00	29.668 
23:30	39.3	39.3	39.3	96	38.3	1	4	112	0.01	29.656 
23:35	39.3	39.3	39.3	96	38.3	1	4	112	0.00	29.656 
23:40	39.5	39.5	39.5	96	38.5	1	4	112	0.01	29.656 
23:45	39.8	39.8	39.8	96	38.8	1	3	112	0.01	29.649 
23:50	39.9	39.9	39.9	96	38.9	1	3	112	0.01	29.649 
23:55	39.9	39.9	39.9	96	38.9	1	5	112	0.00	29.649 

CoCoRaHS
IN-AL-39
A2 Web Hosting
Creative Commons License
GoDaddy
search engine by freefind advanced

loaded 2018-11-16 00:33:17 • last modified 2010-11-18 10:43:29
Privacy PolicyDisclaimer
• wx.awcolley.com is powered by PmWiki v.2002016 •
• all content (unless otherwise noted) © 2018 A W Colley